createdAt,value
2019-02-04T00:02:00.786Z,44.25
2019-02-04T00:04:30.766Z,44.05
2019-02-04T00:07:00.324Z,50.73
2019-02-04T00:09:30.051Z,32.48
2019-02-04T00:11:59.633Z,38.70
2019-02-04T00:14:29.218Z,34.45
2019-02-04T00:16:58.797Z,42.60
2019-02-04T00:19:28.483Z,39.83
2019-02-04T00:21:58.024Z,44.15
2019-02-04T00:24:28.012Z,47.98
2019-02-04T00:26:57.570Z,40.50
2019-02-04T00:29:27.202Z,49.63
2019-02-04T00:31:56.726Z,38.65
2019-02-04T00:34:26.387Z,28.23
2019-02-04T00:36:55.948Z,22.93
2019-02-04T00:39:26.016Z,45.00
2019-02-04T00:41:55.652Z,40.50
2019-02-04T00:44:25.181Z,48.28
2019-02-04T00:46:54.815Z,31.60
2019-02-04T00:49:24.372Z,39.25
2019-02-04T00:51:54.075Z,36.10
2019-02-04T00:54:23.696Z,32.45
2019-02-04T00:56:55.635Z,21.62
2019-02-04T00:59:25.185Z,38.90
2019-02-04T01:01:54.859Z,31.85
2019-02-04T01:04:24.428Z,27.75
2019-02-04T01:06:54.307Z,37.08
2019-02-04T01:09:24.007Z,32.98
2019-02-04T01:11:54.723Z,34.38
2019-02-04T01:14:24.195Z,30.88
2019-02-04T01:17:03.191Z,36.42
2019-02-04T01:19:24.990Z,34.05
2019-02-04T01:21:54.653Z,36.98
2019-02-04T01:24:24.261Z,27.32
2019-02-04T01:26:53.884Z,30.05
2019-02-04T01:29:24.944Z,28.20
2019-02-04T01:31:54.463Z,31.62
2019-02-04T01:34:24.643Z,38.95
2019-02-04T01:36:55.119Z,33.83
2019-02-04T01:39:24.856Z,29.95
2019-02-04T01:41:54.523Z,33.00
2019-02-04T01:44:26.072Z,37.23
2019-02-04T01:46:55.938Z,39.88
2019-02-04T01:49:25.498Z,41.90
2019-02-04T01:51:55.133Z,41.77
2019-02-04T01:54:25.640Z,35.10
2019-02-04T01:56:55.276Z,49.53
2019-02-04T01:59:24.824Z,36.95
2019-02-04T02:01:54.438Z,37.30
2019-02-04T02:04:24.018Z,37.13
2019-02-04T02:06:53.829Z,45.03
2019-02-04T02:09:24.967Z,45.63
2019-02-04T02:11:54.479Z,42.10
2019-02-04T02:14:25.572Z,37.13
2019-02-04T02:16:55.083Z,41.23
2019-02-04T02:19:24.786Z,38.67
2019-02-04T02:21:54.307Z,34.27
2019-02-04T02:24:23.982Z,47.85
2019-02-04T02:26:53.483Z,44.25
2019-02-04T02:29:23.223Z,41.50
2019-02-04T02:31:52.746Z,45.52
2019-02-04T02:34:22.253Z,36.60
2019-02-04T02:36:51.822Z,36.55
2019-02-04T02:39:21.337Z,46.00
2019-02-04T02:41:51.364Z,37.20
2019-02-04T02:44:20.891Z,42.70
2019-02-04T02:46:50.534Z,44.53
2019-02-04T02:49:20.028Z,36.63
2019-02-04T02:51:49.957Z,44.75
2019-02-04T02:54:19.586Z,39.48
2019-02-04T02:56:49.401Z,36.70
2019-02-04T02:59:18.989Z,37.55
2019-02-04T03:20:43.572Z,38.95
2019-02-04T03:23:13.216Z,37.08
2019-02-04T03:25:43.645Z,34.60
2019-02-04T03:28:13.231Z,40.10
2019-02-04T03:30:42.829Z,44.85
2019-02-04T03:33:16.240Z,44.27
2019-02-04T03:35:46.312Z,32.20
2019-02-04T03:38:15.842Z,27.02
2019-02-04T03:40:45.497Z,33.38
2019-02-04T03:43:15.083Z,41.33
2019-02-04T03:45:44.752Z,32.28
2019-02-04T03:48:15.374Z,22.73
2019-02-04T03:50:44.968Z,36.25
2019-02-04T03:53:14.527Z,46.85
2019-02-04T03:55:44.134Z,50.25
2019-02-04T03:58:13.673Z,48.50
2019-02-04T04:00:43.172Z,44.83
2019-02-04T04:03:12.914Z,39.70
2019-02-04T04:05:42.470Z,52.75
2019-02-04T04:08:12.144Z,47.65
2019-02-04T04:10:41.648Z,50.08
2019-02-04T04:13:11.259Z,47.08
2019-02-04T04:15:40.800Z,48.87
2019-02-04T04:18:16.022Z,53.60
2019-02-04T04:20:41.720Z,54.63
2019-02-04T04:23:11.358Z,57.38
2019-02-04T04:25:40.908Z,53.50
2019-02-04T04:28:10.587Z,45.73
2019-02-04T04:30:40.299Z,51.88
2019-02-04T04:33:10.009Z,46.70
2019-02-04T04:35:39.681Z,49.98
2019-02-04T04:38:09.386Z,58.58
2019-02-04T04:40:39.039Z,55.92
2019-02-04T04:43:08.705Z,50.83
2019-02-04T04:45:38.339Z,63.98
2019-02-04T04:48:10.695Z,59.77
2019-02-04T04:50:40.420Z,62.58
2019-02-04T04:53:10.008Z,39.78
2019-02-04T04:55:39.722Z,55.38
2019-02-04T04:58:09.531Z,65.80
2019-02-04T05:00:39.339Z,60.78
2019-02-04T05:03:08.975Z,61.98
2019-02-04T05:05:38.514Z,53.45
2019-02-04T05:08:09.432Z,60.40
2019-02-04T05:10:40.271Z,44.13
2019-02-04T05:13:10.863Z,69.32
2019-02-04T05:15:40.735Z,62.13
2019-02-04T05:18:11.683Z,54.08
2019-02-04T05:20:41.256Z,53.25
2019-02-04T05:23:11.823Z,58.73
2019-02-04T05:25:41.472Z,60.75
2019-02-04T05:28:12.015Z,63.73
2019-02-04T05:30:41.521Z,73.97
2019-02-04T05:33:11.916Z,65.00
2019-02-04T05:35:41.560Z,61.08
2019-02-04T05:38:12.311Z,60.17
2019-02-04T05:40:42.040Z,55.83
2019-02-04T05:43:11.584Z,67.35
2019-02-04T05:45:41.383Z,70.97
2019-02-04T05:48:11.101Z,53.85
2019-02-04T05:50:40.690Z,62.17
2019-02-04T05:53:11.164Z,57.40
2019-02-04T05:55:40.907Z,48.65
2019-02-04T05:58:11.451Z,52.25
2019-02-04T06:00:46.657Z,50.70
2019-02-04T06:03:17.392Z,43.30
2019-02-04T06:05:47.498Z,50.50
2019-02-04T06:08:17.095Z,47.23
2019-02-04T06:10:46.943Z,60.12
2019-02-04T06:13:17.393Z,46.75
2019-02-04T06:15:47.123Z,72.17
2019-02-04T06:18:17.456Z,46.33
2019-02-04T06:20:47.123Z,48.60
2019-02-04T06:23:17.421Z,53.80
2019-02-04T06:25:47.088Z,46.25
2019-02-04T06:28:17.918Z,47.03
2019-02-04T06:30:47.499Z,45.55
2019-02-04T06:33:17.280Z,54.58
2019-02-04T06:35:47.058Z,32.23
2019-02-04T06:38:16.878Z,41.48
2019-02-04T06:40:46.628Z,42.20
2019-02-04T06:43:16.831Z,53.85
2019-02-04T06:45:46.849Z,49.27
2019-02-04T06:48:16.588Z,39.25
2019-02-04T06:50:46.358Z,48.33
2019-02-04T06:53:17.536Z,44.83
2019-02-04T06:55:47.344Z,63.33
2019-02-04T06:58:17.382Z,55.05
2019-02-04T07:00:47.292Z,57.43
2019-02-04T07:03:17.737Z,35.60
2019-02-04T07:05:47.739Z,41.80
2019-02-04T07:08:20.595Z,54.80
2019-02-04T07:10:50.739Z,55.85
2019-02-04T07:13:20.432Z,47.88
2019-02-04T07:15:50.246Z,51.63
2019-02-04T07:18:20.019Z,44.98
2019-02-04T07:20:49.788Z,45.40
2019-02-04T07:23:19.503Z,38.92
2019-02-04T07:25:49.407Z,49.63
2019-02-04T07:28:19.549Z,43.30
2019-02-04T07:30:49.203Z,43.15
2019-02-04T07:33:19.789Z,46.63
2019-02-04T07:35:49.439Z,50.03
2019-02-04T07:38:19.200Z,41.30
2019-02-04T07:40:48.808Z,42.13
2019-02-04T07:55:55.484Z,37.75
2019-02-04T07:58:25.125Z,37.42
2019-02-04T08:00:55.851Z,42.07
2019-02-04T08:03:25.557Z,46.03
2019-02-04T08:05:55.293Z,47.03
2019-02-04T08:08:24.842Z,45.35
2019-02-04T08:10:54.615Z,44.23
2019-02-04T08:13:31.503Z,44.25
2019-02-04T08:16:03.325Z,30.23
2019-02-04T08:18:32.983Z,42.17
2019-02-04T08:21:02.846Z,36.15
2019-02-04T08:23:32.582Z,41.23
2019-02-04T08:26:02.382Z,41.00
2019-02-04T08:28:32.040Z,31.00
2019-02-04T08:31:01.754Z,27.17
2019-02-04T08:33:32.433Z,33.33
2019-02-04T08:36:03.221Z,33.57
2019-02-04T08:38:32.921Z,19.43
2019-02-04T08:41:02.607Z,33.20
2019-02-04T08:43:32.321Z,21.60
2019-02-04T08:46:01.827Z,33.93
2019-02-04T08:48:31.568Z,7.30
2019-02-04T08:51:01.215Z,6.37
2019-02-04T08:53:30.765Z,18.43
2019-02-04T08:56:00.433Z,19.53
2019-02-04T08:58:29.998Z,18.77
2019-02-04T09:00:59.962Z,20.53
2019-02-04T09:03:29.650Z,23.40
2019-02-04T09:05:59.484Z,22.93
2019-02-04T09:08:29.047Z,20.10
2019-02-04T09:10:58.916Z,20.17
2019-02-04T09:13:30.494Z,19.43
2019-02-04T09:16:00.170Z,16.90
2019-02-04T09:18:29.837Z,16.53
2019-02-04T09:20:59.695Z,17.20
2019-02-04T09:23:30.015Z,17.00
2019-02-04T09:26:03.101Z,19.60
2019-02-04T09:28:32.815Z,21.97
2019-02-04T09:31:02.423Z,15.37
2019-02-04T09:33:32.439Z,25.90
2019-02-04T09:36:02.531Z,18.60
2019-02-04T09:38:32.273Z,19.53
2019-02-04T09:41:01.840Z,23.20
2019-02-04T09:43:31.731Z,22.37
2019-02-04T09:46:01.330Z,20.13
2019-02-04T09:48:31.900Z,21.53
2019-02-04T09:51:02.781Z,17.97
2019-02-04T09:53:32.411Z,19.60
2019-02-04T09:56:02.817Z,21.97
2019-02-04T09:58:33.857Z,21.50
2019-02-04T10:01:04.405Z,18.82
2019-02-04T10:03:34.295Z,21.50
2019-02-04T10:06:04.986Z,23.90
2019-02-04T10:08:34.700Z,24.65
2019-02-04T10:11:04.662Z,31.57
2019-02-04T10:13:34.373Z,27.45
2019-02-04T10:16:04.719Z,25.13
2019-02-04T10:18:34.411Z,29.33
2019-02-04T10:21:04.082Z,27.30
2019-02-04T10:23:33.632Z,27.58
2019-02-04T10:26:03.744Z,24.60
2019-02-04T10:28:34.499Z,26.30
2019-02-04T10:31:04.600Z,23.37
2019-02-04T10:33:34.169Z,27.50
2019-02-04T10:36:03.992Z,24.13
2019-02-04T10:38:33.594Z,30.23
2019-02-04T10:41:03.231Z,24.47
2019-02-04T10:43:33.117Z,28.63
2019-02-04T10:46:04.679Z,27.53
2019-02-04T10:48:34.528Z,31.67
2019-02-04T10:51:04.167Z,28.80
2019-02-04T10:53:33.771Z,26.93
2019-02-04T10:56:03.403Z,27.02
2019-02-04T10:58:33.292Z,30.02
2019-02-04T11:01:03.300Z,27.50
2019-02-04T11:03:33.175Z,28.85
2019-02-04T11:06:02.924Z,31.62
2019-02-04T11:08:32.985Z,27.20
2019-02-04T11:11:02.891Z,28.70
2019-02-04T11:13:32.511Z,30.87
2019-02-04T11:16:02.346Z,21.87
2019-02-04T11:18:33.304Z,34.03
2019-02-04T11:21:03.370Z,24.37
2019-02-04T11:23:32.998Z,13.10
2019-02-04T11:26:03.170Z,15.47
2019-02-04T11:28:32.823Z,4.87
2019-02-04T11:31:04.737Z,8.13
2019-02-04T11:33:34.325Z,12.70
2019-02-04T11:36:04.091Z,13.40
2019-02-04T11:38:33.847Z,2.03
2019-02-04T11:41:03.573Z,14.83
2019-02-04T11:43:33.252Z,20.53
2019-02-04T11:46:02.838Z,25.77
2019-02-04T11:48:32.633Z,18.50
2019-02-04T11:51:09.164Z,22.33
2019-02-04T11:53:33.617Z,17.40
2019-02-04T11:56:03.315Z,28.30
2019-02-04T11:58:33.058Z,23.38
2019-02-04T12:01:04.074Z,19.52
2019-02-04T12:06:10.031Z,23.20
2019-02-04T12:08:39.895Z,24.92
2019-02-04T12:11:20.140Z,25.35
2019-02-04T12:13:49.808Z,29.40
2019-02-04T12:16:19.521Z,28.33
2019-02-04T12:18:49.368Z,23.97
2019-02-04T12:21:21.451Z,21.40
2019-02-04T12:23:50.463Z,22.93
2019-02-04T12:26:21.163Z,29.53
2019-02-04T12:28:50.769Z,30.83
2019-02-04T12:31:20.762Z,22.43
2019-02-04T12:33:50.996Z,24.47
2019-02-04T12:36:20.868Z,22.23
2019-02-04T12:38:50.473Z,28.70
2019-02-04T12:41:20.424Z,25.20
2019-02-04T12:43:50.131Z,21.33
2019-02-04T12:46:20.398Z,23.60
2019-02-04T12:48:50.044Z,25.97
2019-02-04T12:51:19.628Z,30.13
2019-02-04T12:53:49.451Z,22.60
2019-02-04T12:56:19.060Z,24.77
2019-02-04T12:58:55.610Z,20.10
2019-02-04T13:01:19.974Z,27.70
2019-02-04T13:03:49.746Z,23.38
2019-02-04T13:06:19.441Z,23.57
2019-02-04T13:08:51.915Z,27.05
2019-02-04T13:11:21.694Z,25.43
2019-02-04T13:13:51.684Z,23.62
2019-02-04T13:16:21.394Z,28.62
2019-02-04T13:18:53.076Z,24.15
2019-02-04T13:21:22.782Z,21.75
2019-02-04T13:23:52.558Z,21.90
2019-02-04T13:26:22.247Z,26.42
2019-02-04T13:28:51.780Z,24.92
2019-02-04T13:31:21.465Z,23.75
2019-02-04T13:33:51.124Z,27.65
2019-02-04T13:36:21.972Z,22.13
2019-02-04T13:38:51.579Z,22.90
2019-02-04T13:41:21.579Z,19.10
2019-02-04T13:43:51.124Z,21.62
2019-02-04T13:46:20.810Z,23.07
2019-02-04T13:48:50.412Z,20.92
2019-02-04T13:51:20.185Z,23.80
2019-02-04T13:53:49.940Z,22.37
2019-02-04T13:56:19.518Z,27.07
2019-02-04T13:58:49.267Z,22.90
2019-02-04T14:01:19.017Z,24.87
2019-02-04T14:03:48.675Z,24.60
2019-02-04T14:06:18.305Z,33.70
2019-02-04T14:08:48.566Z,31.12
2019-02-04T14:11:18.230Z,31.70
2019-02-04T14:13:47.927Z,37.17
2019-02-04T14:16:17.492Z,33.63
2019-02-04T14:18:47.123Z,35.63
2019-02-04T14:21:16.681Z,30.88
2019-02-04T14:23:46.273Z,33.18
2019-02-04T14:26:15.955Z,32.28
2019-02-04T14:28:45.640Z,33.83
2019-02-04T14:31:15.267Z,31.95
2019-02-04T14:33:44.843Z,40.75
2019-02-04T14:36:14.499Z,33.60
2019-02-04T14:38:44.482Z,36.83
2019-02-04T14:41:14.449Z,34.25
2019-02-04T14:43:54.313Z,43.17
2019-02-04T14:46:46.641Z,35.83
2019-02-04T14:49:46.155Z,27.50
2019-02-04T14:52:23.976Z,33.58
2019-02-04T14:55:55.718Z,34.63
2019-02-04T14:58:52.563Z,34.25
2019-02-04T15:02:02.351Z,36.03
2019-02-04T15:05:06.586Z,32.42
2019-02-04T15:08:08.991Z,34.70
2019-02-04T15:11:12.897Z,27.00
2019-02-04T15:14:25.028Z,28.27
2019-02-04T15:16:59.673Z,28.10
2019-02-04T15:20:22.681Z,31.23
2019-02-04T15:23:38.616Z,26.93
2019-02-04T15:26:44.106Z,27.67
2019-02-04T15:29:32.005Z,28.20
2019-02-04T15:32:30.022Z,26.23
2019-02-04T15:35:45.468Z,24.27
2019-02-04T15:38:56.988Z,34.25
2019-02-04T15:42:31.862Z,27.40
2019-02-04T15:45:25.373Z,26.82
2019-02-04T15:48:25.067Z,31.27
2019-02-04T15:51:28.894Z,27.98
2019-02-04T15:54:01.951Z,34.23
2019-02-04T15:56:31.667Z,29.48
2019-02-04T15:59:01.449Z,29.10
2019-02-04T16:01:31.199Z,29.05
2019-02-04T16:04:02.371Z,25.30
2019-02-04T16:06:32.250Z,32.45
2019-02-04T16:09:01.843Z,25.17
2019-02-04T16:11:31.691Z,31.55
2019-02-04T16:14:01.368Z,28.45
2019-02-04T16:16:31.043Z,33.50
2019-02-04T16:19:00.793Z,33.80
2019-02-04T16:21:30.817Z,36.68
2019-02-04T16:24:01.438Z,34.00
2019-02-04T16:26:31.152Z,30.85
2019-02-04T16:29:01.117Z,33.30
2019-02-04T16:31:30.915Z,30.92
2019-02-04T16:34:01.105Z,37.70
2019-02-04T16:36:30.776Z,34.78
2019-02-04T16:39:00.500Z,38.42
2019-02-04T16:41:30.197Z,38.20
2019-02-04T16:43:59.879Z,35.85
2019-02-04T16:46:29.637Z,35.20
2019-02-04T16:48:59.513Z,38.53
2019-02-04T16:51:30.172Z,36.70
2019-02-04T16:53:59.762Z,36.20
2019-02-04T16:56:29.384Z,40.83
2019-02-04T16:58:59.055Z,40.28
2019-02-04T17:01:28.671Z,47.75
2019-02-04T17:03:58.525Z,37.15
2019-02-04T17:06:28.160Z,42.75
2019-02-04T17:08:58.088Z,42.88
2019-02-04T17:11:27.794Z,43.58
2019-02-04T17:13:57.477Z,38.98
2019-02-04T17:16:27.174Z,37.85
2019-02-04T17:18:56.897Z,44.98
2019-02-04T17:21:26.487Z,40.00
2019-02-04T17:23:56.128Z,46.80
2019-02-04T17:26:26.091Z,47.13
2019-02-04T17:28:55.792Z,38.92
2019-02-04T17:31:25.436Z,40.48
2019-02-04T17:33:55.119Z,43.73
2019-02-04T17:36:24.802Z,43.20
2019-02-04T17:38:54.476Z,50.58
2019-02-04T17:41:24.246Z,47.90
2019-02-04T17:43:53.936Z,48.87
2019-02-04T17:46:24.936Z,45.17
2019-02-04T17:48:54.689Z,52.23
2019-02-04T17:51:24.783Z,44.58
2019-02-04T17:53:54.386Z,45.33
2019-02-04T17:56:24.274Z,48.50
2019-02-04T17:58:53.872Z,52.15
2019-02-04T18:01:23.853Z,48.83
2019-02-04T18:03:53.743Z,53.33
2019-02-04T18:06:23.371Z,50.12
2019-02-04T18:08:54.043Z,50.55
2019-02-04T18:11:24.413Z,58.17
2019-02-04T18:13:53.947Z,48.50
2019-02-04T18:16:23.720Z,51.45
2019-02-04T18:18:53.345Z,50.25
2019-02-04T18:21:22.941Z,54.93
2019-02-04T18:23:53.532Z,53.00
2019-02-04T18:26:23.244Z,52.10
2019-02-04T18:28:53.147Z,56.15
2019-02-04T18:31:22.912Z,49.98
2019-02-04T18:33:52.955Z,56.15
2019-02-04T18:36:22.646Z,47.55
2019-02-04T18:38:52.231Z,50.08
2019-02-04T18:41:21.917Z,56.83
2019-02-04T18:43:51.569Z,52.48
2019-02-04T18:46:21.174Z,67.32
2019-02-04T18:48:50.963Z,52.85
2019-02-04T18:51:20.667Z,57.43
2019-02-04T18:53:57.428Z,65.87
2019-02-04T18:56:22.728Z,58.75
2019-02-04T18:58:52.268Z,60.98
2019-02-04T19:01:21.857Z,60.95
2019-02-04T19:03:51.529Z,58.10
2019-02-04T19:06:21.099Z,55.12
2019-02-04T19:08:51.042Z,69.65
2019-02-04T19:11:20.733Z,61.92
2019-02-04T19:13:50.509Z,57.50
2019-02-04T19:16:20.257Z,65.12
2019-02-04T19:18:50.134Z,68.85
2019-02-04T19:21:19.889Z,57.40
2019-02-04T19:23:49.726Z,71.97
2019-02-04T19:26:19.421Z,67.62
2019-02-04T19:28:50.988Z,67.00
2019-02-04T19:31:23.391Z,62.27
2019-02-04T19:33:53.163Z,61.85
2019-02-04T19:36:23.130Z,66.60
2019-02-04T19:38:52.887Z,75.70
2019-02-04T19:41:24.173Z,66.90
2019-02-04T19:43:54.744Z,73.25
2019-02-04T19:46:24.379Z,67.42
2019-02-04T19:48:53.981Z,68.55
2019-02-04T19:51:23.600Z,68.40
2019-02-04T19:53:53.155Z,61.88
2019-02-04T19:56:22.858Z,65.03
2019-02-04T19:58:52.617Z,63.58
2019-02-04T20:01:22.433Z,59.58
2019-02-04T20:03:51.997Z,55.08
2019-02-04T20:06:21.786Z,58.28
2019-02-04T20:08:51.974Z,64.27
2019-02-04T20:11:21.731Z,64.62
2019-02-04T20:13:51.519Z,64.85
2019-02-04T20:16:21.215Z,57.78
2019-02-04T20:18:50.805Z,65.37
2019-02-04T20:21:20.517Z,64.15
2019-02-04T20:23:50.211Z,60.75
2019-02-04T20:26:19.874Z,57.27
2019-02-04T20:28:51.118Z,56.23
2019-02-04T20:31:20.837Z,63.08
2019-02-04T20:34:02.766Z,54.77
2019-02-04T20:36:32.443Z,58.13
2019-02-04T20:39:02.333Z,51.20
2019-02-04T20:41:34.562Z,54.75
2019-02-04T20:44:04.138Z,54.40
2019-02-04T20:46:34.056Z,57.20
2019-02-04T20:49:03.699Z,48.45
2019-02-04T20:51:34.831Z,50.38
2019-02-04T20:54:04.802Z,51.05
2019-02-04T20:56:34.401Z,52.20
2019-02-04T20:59:04.040Z,53.55
2019-02-04T21:01:33.574Z,53.17
2019-02-04T21:04:03.220Z,48.08
2019-02-04T21:06:32.843Z,58.78
2019-02-04T21:09:02.572Z,54.50
2019-02-04T21:11:32.251Z,52.05
2019-02-04T21:14:02.883Z,56.35
2019-02-04T21:16:32.580Z,55.08
2019-02-04T21:19:02.284Z,49.83
2019-02-04T21:21:31.947Z,49.03
2019-02-04T21:24:01.558Z,56.88
2019-02-04T21:26:31.222Z,52.62
2019-02-04T21:29:01.349Z,55.05
2019-02-04T21:31:30.958Z,50.12
2019-02-04T21:34:00.665Z,50.67
2019-02-04T21:36:30.246Z,49.18
2019-02-04T21:38:59.878Z,46.75
2019-02-04T21:41:29.566Z,47.50
2019-02-04T21:43:59.339Z,48.30
2019-02-04T21:46:29.074Z,48.73
2019-02-04T21:48:58.703Z,45.50
2019-02-04T21:51:28.341Z,51.45
2019-02-04T21:53:58.035Z,45.85
2019-02-04T22:52:55.403Z,44.65
2019-02-04T22:55:32.187Z,38.30
2019-02-04T22:57:57.110Z,36.68
2019-02-04T23:01:10.873Z,33.42
2019-02-04T23:03:40.528Z,33.90
2019-02-04T23:06:10.184Z,32.20
2019-02-04T23:08:40.881Z,34.03
2019-02-04T23:11:10.550Z,43.05
2019-02-04T23:13:40.434Z,37.93
2019-02-04T23:16:10.409Z,42.00
2019-02-04T23:18:40.389Z,38.13
2019-02-04T23:21:10.196Z,31.73
2019-02-04T23:23:39.916Z,23.00
2019-02-04T23:26:11.198Z,36.65
2019-02-04T23:28:40.917Z,35.17
2019-02-04T23:31:10.989Z,44.30
2019-02-04T23:33:40.606Z,27.50
2019-02-04T23:36:10.363Z,30.52
2019-02-04T23:38:40.455Z,21.17
2019-02-04T23:41:10.423Z,16.67
2019-02-04T23:43:39.978Z,31.40
2019-02-04T23:46:09.677Z,35.68
2019-02-04T23:48:39.473Z,33.90
2019-02-04T23:51:09.376Z,35.28
2019-02-04T23:53:39.011Z,37.23
2019-02-04T23:56:08.735Z,36.48
2019-02-04T23:58:39.975Z,35.17
